Terminal Aerodrome Forecast
Issued by NWS

Home | Current Version | Previous Version | Text Only | Print | Product List | Glossary On
Versions: 1 2 3 4 5 6 7 8 9 10 11 12 13 14 15
000
FTUS43 KPAH 220520
TAFOWB
TAF
KOWB 220520Z 2206/2306 20005KT P6SM SCT200
     FM221200 21008KT P6SM SCT035 BKN200
     FM221500 25010KT P6SM VCSH BKN035 PROB30 2220/2224 4SM -TSRA BR
      BKN025CB
     FM230100 32006KT P6SM BKN060=

USA.gov is the U.S. government's official web portal to all federal, state and local government web resources and services.